Time;durP1;ratioP1;P1;durP2;ratioP2;P2;SDS_P1;SDS_P2;PMS_P1;PMS_P2;Temp;Humidity;BMP_temperature;BMP_pressure;BME280_temperature;BME280_humidity;BME280_pressure;Samples;Min_cycle;Max_cycle;Signal;HPM_P1;HPM_P2
2021/03/17 07:59:18;;;;;;;7.32;4.88;;;;;;;;;;6252283;23;20062;-88
2021/03/17 08:01:45;;;;;;;6.70;4.53;;;;;;;;;;6213275;23;20015;-91
2021/03/17 08:04:12;;;;;;;11.95;4.28;;;;;;;;;;6213180;23;20012;-92
2021/03/17 08:06:39;;;;;;;6.55;4.68;;;;;;;;;;6239068;23;20035;-91
2021/03/17 08:09:05;;;;;;;4.82;4.28;;;;;;;;;;6213914;23;20012;-90
2021/03/17 08:11:32;;;;;;;6.28;3.95;;;;;;;;;;6213480;23;20019;-90
2021/03/17 08:14:00;;;;;;;4.57;3.72;;;;;;;;;;6213095;23;20073;-90
2021/03/17 08:16:28;;;;;;;5.13;3.75;;;;;;;;;;6213085;23;20050;-90
2021/03/17 08:18:55;;;;;;;5.43;4.28;;;;;;;;;;6240132;23;20016;-89
2021/03/17 08:21:40;;;;;;;5.03;3.78;;;;;;;;;;6213601;23;20028;-90
2021/03/17 08:24:07;;;;;;;5.30;4.03;;;;;;;;;;6214149;23;20242;-89
2021/03/17 08:26:35;;;;;;;4.22;3.47;;;;;;;;;;6189961;23;20019;-89
2021/03/17 08:29:01;;;;;;;4.63;3.47;;;;;;;;;;6215107;23;20342;-89
2021/03/17 08:31:37;;;;;;;5.60;3.43;;;;;;;;;;6215250;23;20020;-89
2021/03/17 08:34:33;;;;;;;5.15;3.92;;;;;;;;;;6214747;23;20445;-90
2021/03/17 08:37:00;;;;;;;6.40;3.50;;;;;;;;;;6189986;22;20073;-89
2021/03/17 08:39:30;;;;;;;5.43;3.55;;;;;;;;;;6216692;23;20350;-90
2021/03/17 08:41:56;;;;;;;5.63;3.45;;;;;;;;;;6214474;23;20019;-91
2021/03/17 08:44:24;;;;;;;5.82;3.75;;;;;;;;;;6217000;23;20034;-91
2021/03/17 08:46:52;;;;;;;5.05;3.95;;;;;;;;;;6212250;23;20038;-90
2021/03/17 08:49:18;;;;;;;;;;;;;;;;;;6216502;23;20015;-89
2021/03/17 08:51:55;;;;;;;6.80;3.75;;;;;;;;;;6235325;23;19903;-89
2021/03/17 08:54:50;;;;;;;6.85;3.92;;;;;;;;;;6270496;22;20012;-89
2021/03/17 08:57:17;;;;;;;8.02;3.60;;;;;;;;;;6237108;23;20016;-90
2021/03/17 08:59:44;;;;;;;4.35;3.65;;;;;;;;;;6215497;23;20012;-91
2021/03/17 09:02:26;;;;;;;4.53;3.70;;;;;;;;;;6213878;23;20007;-91
2021/03/17 09:04:57;;;;;;;8.30;4.07;;;;;;;;;;6215960;23;20031;-91
2021/03/17 09:07:27;;;;;;;5.13;4.03;;;;;;;;;;6195520;23;20012;-90
2021/03/17 11:00:40;;;;;;;4.68;1.63;;;;;;;;;;6257366;22;20023;-88
2021/03/17 11:03:25;;;;;;;2.28;1.50;;;;;;;;;;6263799;23;20557;-90
2021/03/17 11:05:52;;;;;;;3.92;1.45;;;;;;;;;;6215745;23;20027;-87
2021/03/17 11:08:18;;;;;;;4.50;1.42;;;;;;;;;;6215601;23;20008;-87
2021/03/17 11:10:49;;;;;;;3.97;1.50;;;;;;;;;;6214433;23;20016;-88
2021/03/17 11:13:16;;;;;;;2.28;1.40;;;;;;;;;;6217368;23;20008;-89
2021/03/17 11:15:45;;;;;;;1.23;0.88;;;;;;;;;;6216884;23;20009;-89
2021/03/17 11:18:22;;;;;;;1.80;1.13;;;;;;;;;;6243771;23;20071;-88
2021/03/17 11:20:50;;;;;;;1.50;0.90;;;;;;;;;;6216419;23;20306;-88
2021/03/17 11:23:22;;;;;;;2.00;0.93;;;;;;;;;;6217411;23;20013;-88
2021/03/17 11:25:51;;;;;;;2.03;0.80;;;;;;;;;;6242517;23;20004;-88
2021/03/17 11:28:19;;;;;;;1.55;0.80;;;;;;;;;;6217347;23;20008;-88
2021/03/17 11:30:51;;;;;;;4.72;1.10;;;;;;;;;;6214963;23;20008;-87
2021/03/17 11:33:18;;;;;;;2.38;1.00;;;;;;;;;;6216492;23;20083;-89
2021/03/17 11:35:45;;;;;;;1.60;0.93;;;;;;;;;;6215049;23;20095;-88
2021/03/17 11:38:12;;;;;;;3.90;1.10;;;;;;;;;;6187092;23;20016;-89
2021/03/17 11:40:39;;;;;;;2.13;0.80;;;;;;;;;;6185737;23;20108;-89
2021/03/17 11:43:13;;;;;;;1.92;1.05;;;;;;;;;;6212157;23;20080;-88
2021/03/17 11:45:40;;;;;;;3.78;0.80;;;;;;;;;;6211147;23;20005;-89
2021/03/17 11:48:07;;;;;;;4.53;2.97;;;;;;;;;;6212820;23;20019;-89
2021/03/17 11:50:34;;;;;;;4.05;2.55;;;;;;;;;;6212050;23;20105;-89
2021/03/17 11:53:00;;;;;;;4.03;1.42;;;;;;;;;;6212181;23;20504;-90
2021/03/17 11:55:27;;;;;;;3.83;1.27;;;;;;;;;;6212574;23;20032;-89
2021/03/17 11:57:53;;;;;;;4.85;2.83;;;;;;;;;;6186231;23;20013;-90
2021/03/17 12:00:20;;;;;;;3.40;1.77;;;;;;;;;;6213295;23;20012;-91
2021/03/17 12:02:47;;;;;;;3.88;2.20;;;;;;;;;;6213346;23;20009;-89
2021/03/17 12:05:14;;;;;;;3.85;1.75;;;;;;;;;;6189151;23;20019;-90
2021/03/17 12:07:41;;;;;;;4.13;1.77;;;;;;;;;;6213322;23;20054;-90
2021/03/17 12:10:08;;;;;;;;;;;;;;;;;;6214784;23;20489;-90
2021/03/17 12:12:34;;;;;;;3.60;1.90;;;;;;;;;;6189076;23;19930;-90
2021/03/17 12:15:03;;;;;;;3.90;1.60;;;;;;;;;;6197312;23;20024;-88
2021/03/17 12:17:33;;;;;;;5.40;2.15;;;;;;;;;;6243724;22;20061;-91
2021/03/17 12:32:36;;;;;;;4.85;1.65;;;;;;;;;;6245806;22;20090;-91
2021/03/17 12:35:03;;;;;;;3.13;1.95;;;;;;;;;;6218830;23;20453;-92
2021/03/17 12:37:30;;;;;;;3.20;1.63;;;;;;;;;;6218920;23;20016;-91
2021/03/17 12:39:56;;;;;;;3.40;1.57;;;;;;;;;;6193156;23;20012;-90
2021/03/17 12:42:23;;;;;;;8.00;1.88;;;;;;;;;;6218842;23;20328;-90
2021/03/17 12:44:49;;;;;;;2.73;1.37;;;;;;;;;;6218151;23;20012;-90
2021/03/17 12:47:18;;;;;;;2.90;1.10;;;;;;;;;;6218230;23;20023;-89
2021/03/17 12:49:48;;;;;;;2.22;1.30;;;;;;;;;;6218216;23;20035;-90
2021/03/17 12:52:15;;;;;;;3.13;1.48;;;;;;;;;;6218910;23;20038;-87
2021/03/17 12:54:42;;;;;;;7.30;1.60;;;;;;;;;;6217406;23;20077;-90
2021/03/17 12:57:14;;;;;;;;;;;;;;;;;;6219582;23;20242;-90
2021/03/17 12:59:43;;;;;;;3.10;1.20;;;;;;;;;;6217444;23;19908;-91
2021/03/17 13:02:11;;;;;;;1.98;1.10;;;;;;;;;;6218101;23;20436;-93
2021/03/17 13:04:37;;;;;;;3.28;1.67;;;;;;;;;;6217993;23;20016;-92
2021/03/17 13:07:05;;;;;;;4.47;1.40;;;;;;;;;;6218402;23;20016;-92
2021/03/17 13:09:32;;;;;;;11.43;5.15;;;;;;;;;;6218914;23;20004;-91
2021/03/17 13:12:27;;;;;;;3.10;1.67;;;;;;;;;;6192337;23;20012;-92
2021/03/17 13:14:56;;;;;;;12.52;4.25;;;;;;;;;;6217390;23;20012;-93
2021/03/17 13:17:24;;;;;;;5.15;1.60;;;;;;;;;;6219796;23;20452;-95
2021/03/17 13:19:51;;;;;;;3.40;1.40;;;;;;;;;;6217612;23;20080;-93
2021/03/17 13:22:18;;;;;;;2.95;1.40;;;;;;;;;;6218599;23;20042;-93
2021/03/17 13:24:45;;;;;;;4.18;1.30;;;;;;;;;;6218594;23;20012;-92
2021/03/17 13:27:12;;;;;;;4.40;1.38;;;;;;;;;;6193698;23;20012;-93
2021/03/17 13:29:39;;;;;;;7.65;1.90;;;;;;;;;;6218131;23;20012;-92
2021/03/17 13:32:06;;;;;;;;;;;;;;;;;;6194032;23;20024;-95
2021/03/17 13:34:33;;;;;;;4.63;1.38;;;;;;;;;;6217483;23;19904;-94
2021/03/17 13:37:02;;;;;;;1.98;1.40;;;;;;;;;;6217619;22;20040;-93
2021/03/17 13:39:30;;;;;;;1.77;1.55;;;;;;;;;;6230075;23;20022;-92
2021/03/17 13:42:08;;;;;;;2.50;1.73;;;;;;;;;;6235463;23;20075;-90
2021/03/17 13:44:40;;;;;;;3.83;1.92;;;;;;;;;;6218468;23;20020;-91
2021/03/17 14:10:26;;;;;;;2.92;2.13;;;;;;;;;;6256165;23;20072;-88
2021/03/17 14:13:14;;;;;;;5.10;2.50;;;;;;;;;;6240314;23;20000;-88
2021/03/17 14:22:04;;;;;;;4.10;1.85;;;;;;;;;;6273645;22;20019;-90
2021/03/17 14:24:40;;;;;;;2.33;2.10;;;;;;;;;;6237524;23;20019;-89
